createdAt,value
2019-03-06T00:00:36.114Z,59.83
2019-03-06T00:01:11.076Z,59.76
2019-03-06T00:01:42.384Z,58.98
2019-03-06T00:02:13.560Z,57.93
2019-03-06T00:02:44.769Z,57.23
2019-03-06T00:03:16.018Z,57.16
2019-03-06T00:03:47.230Z,57.35
2019-03-06T00:04:19.416Z,57.82
2019-03-06T00:04:50.723Z,58.33
2019-03-06T00:05:21.896Z,58.88
2019-03-06T00:05:53.121Z,59.54
2019-03-06T00:06:24.292Z,60.21
2019-03-06T00:06:55.497Z,60.97
2019-03-06T00:07:26.661Z,61.59
2019-03-06T00:07:57.853Z,62.38
2019-03-06T00:08:29.342Z,63.32
2019-03-06T00:09:00.544Z,64.30
2019-03-06T00:09:31.698Z,65.00
2019-03-06T00:10:24.788Z,65.01
2019-03-06T00:10:55.955Z,65.01
2019-03-06T00:11:27.258Z,64.09
2019-03-06T00:11:58.424Z,63.24
2019-03-06T00:12:29.616Z,62.53
2019-03-06T00:13:00.823Z,61.92
2019-03-06T00:13:32.003Z,61.27
2019-03-06T00:14:03.374Z,60.61
2019-03-06T00:14:34.561Z,59.91
2019-03-06T00:15:06.839Z,59.34
2019-03-06T00:15:39.920Z,58.66
2019-03-06T00:16:11.093Z,57.98
2019-03-06T00:16:42.267Z,57.66
2019-03-06T00:17:13.739Z,57.78
2019-03-06T00:17:45.013Z,58.06
2019-03-06T00:18:16.197Z,58.58
2019-03-06T00:18:47.447Z,59.22
2019-03-06T00:19:18.627Z,59.95
2019-03-06T00:19:49.821Z,60.68
2019-03-06T00:20:21.003Z,61.43
2019-03-06T00:20:52.159Z,62.11
2019-03-06T00:21:23.321Z,62.87
2019-03-06T00:21:54.494Z,63.78
2019-03-06T00:22:25.658Z,64.61
2019-03-06T00:22:56.825Z,64.99
2019-03-06T00:23:28.005Z,65.15
2019-03-06T00:23:59.455Z,64.67
2019-03-06T00:24:30.611Z,64.19
2019-03-06T00:25:03.008Z,63.51
2019-03-06T00:25:35.240Z,63.04
2019-03-06T00:26:06.389Z,62.35
2019-03-06T00:26:37.562Z,61.53
2019-03-06T00:27:08.733Z,60.91
2019-03-06T00:27:39.893Z,60.26
2019-03-06T00:28:11.072Z,59.79
2019-03-06T00:28:42.216Z,59.25
2019-03-06T00:29:14.360Z,58.45
2019-03-06T00:29:46.531Z,57.85
2019-03-06T00:30:18.969Z,57.53
2019-03-06T00:30:50.236Z,57.59
2019-03-06T00:31:21.424Z,57.95
2019-03-06T00:31:52.996Z,58.38
2019-03-06T00:32:25.151Z,58.81
2019-03-06T00:32:56.346Z,59.37
2019-03-06T00:33:27.512Z,60.04
2019-03-06T00:33:58.662Z,60.74
2019-03-06T00:34:29.877Z,61.46
2019-03-06T00:35:01.579Z,61.92
2019-03-06T00:35:43.526Z,62.70
2019-03-06T00:36:16.379Z,63.70
2019-03-06T00:36:47.584Z,64.88
2019-03-06T00:37:18.761Z,64.99
2019-03-06T00:37:49.993Z,64.88
2019-03-06T00:38:21.171Z,64.40
2019-03-06T00:38:52.404Z,63.68
2019-03-06T00:39:24.188Z,63.02
2019-03-06T00:39:57.259Z,62.31
2019-03-06T00:40:39.135Z,61.53
2019-03-06T00:41:21.073Z,60.99
2019-03-06T00:41:52.350Z,60.36
2019-03-06T00:42:23.529Z,59.58
2019-03-06T00:42:54.722Z,58.91
2019-03-06T00:43:25.923Z,57.97
2019-03-06T00:43:57.077Z,57.27
2019-03-06T00:44:28.277Z,57.08
2019-03-06T00:44:59.482Z,57.20
2019-03-06T00:45:30.718Z,57.52
2019-03-06T00:46:01.872Z,58.02
2019-03-06T00:46:33.362Z,58.49
2019-03-06T00:47:04.508Z,58.98
2019-03-06T00:47:35.777Z,59.71
2019-03-06T00:48:07.166Z,60.41
2019-03-06T00:48:38.542Z,61.12
2019-03-06T00:49:09.867Z,61.82
2019-03-06T00:49:41.230Z,62.48
2019-03-06T00:50:12.532Z,63.16
2019-03-06T00:50:43.891Z,64.25
2019-03-06T00:51:15.206Z,64.87
2019-03-06T00:51:46.557Z,64.97
2019-03-06T00:52:18.869Z,64.73
2019-03-06T00:52:50.240Z,64.01
2019-03-06T00:53:21.685Z,63.19
2019-03-06T00:53:53.050Z,62.46
2019-03-06T00:54:24.400Z,61.72
2019-03-06T00:54:55.729Z,61.13
2019-03-06T00:55:27.053Z,60.26
2019-03-06T00:55:58.403Z,59.68
2019-03-06T00:56:29.750Z,59.13
2019-03-06T00:57:01.092Z,58.34
2019-03-06T00:57:32.420Z,57.66
2019-03-06T00:58:03.782Z,57.36
2019-03-06T00:58:35.210Z,57.46
2019-03-06T00:59:06.553Z,57.77
2019-03-06T00:59:37.895Z,58.32
2019-03-06T01:00:20.393Z,58.83
2019-03-06T01:00:51.934Z,59.43
2019-03-06T01:01:23.278Z,60.30
2019-03-06T01:01:54.592Z,61.01
2019-03-06T01:02:25.944Z,61.73
2019-03-06T01:02:57.286Z,62.38
2019-03-06T01:03:29.046Z,63.22
2019-03-06T01:04:00.402Z,64.33
2019-03-06T01:04:32.743Z,64.92
2019-03-06T01:05:07.215Z,64.94
2019-03-06T01:05:38.550Z,64.70
2019-03-06T01:06:09.866Z,63.99
2019-03-06T01:06:41.241Z,63.32
2019-03-06T01:07:12.588Z,62.37
2019-03-06T01:07:43.922Z,61.61
2019-03-06T01:08:15.304Z,60.98
2019-03-06T01:08:46.658Z,60.43
2019-03-06T01:09:17.867Z,59.81
2019-03-06T01:09:49.242Z,59.27
2019-03-06T01:10:20.559Z,58.54
2019-03-06T01:10:51.925Z,57.84
2019-03-06T01:11:23.431Z,57.39
2019-03-06T01:11:54.795Z,57.47
2019-03-06T01:12:26.005Z,57.87
2019-03-06T01:12:57.349Z,58.44
2019-03-06T01:13:28.656Z,59.01
2019-03-06T01:14:00.020Z,59.73
2019-03-06T01:14:31.332Z,60.29
2019-03-06T01:15:05.603Z,61.01
2019-03-06T01:15:36.926Z,61.77
2019-03-06T01:16:08.293Z,62.55
2019-03-06T01:16:39.603Z,63.52
2019-03-06T01:17:10.983Z,64.46
2019-03-06T01:17:42.303Z,65.01
2019-03-06T01:18:13.670Z,64.91
2019-03-06T01:18:46.012Z,64.37
2019-03-06T01:19:17.465Z,63.96
2019-03-06T01:19:48.785Z,63.30
2019-03-06T01:20:20.135Z,62.51
2019-03-06T01:20:51.479Z,61.83
2019-03-06T01:21:22.809Z,61.19
2019-03-06T01:21:54.184Z,60.50
2019-03-06T01:22:25.536Z,59.94
2019-03-06T01:22:59.490Z,59.28
2019-03-06T01:23:30.883Z,58.54
2019-03-06T01:24:02.432Z,57.86
2019-03-06T01:24:33.756Z,57.49
2019-03-06T01:25:13.086Z,57.60
2019-03-06T01:25:44.394Z,57.94
2019-03-06T01:26:15.752Z,58.53
2019-03-06T01:26:46.966Z,59.10
2019-03-06T01:27:18.238Z,59.80
2019-03-06T01:27:49.631Z,60.47
2019-03-06T01:28:21.010Z,61.15
2019-03-06T01:28:52.328Z,61.88
2019-03-06T01:29:23.994Z,62.53
2019-03-06T01:29:55.304Z,63.43
2019-03-06T01:30:26.872Z,64.22
2019-03-06T01:30:58.196Z,64.74
2019-03-06T01:31:29.728Z,64.94
2019-03-06T01:32:01.042Z,64.64
2019-03-06T01:32:32.612Z,64.07
2019-03-06T01:33:08.680Z,63.32
2019-03-06T01:33:45.809Z,62.53
2019-03-06T01:34:35.256Z,61.86
2019-03-06T01:35:22.194Z,61.31
2019-03-06T01:36:01.085Z,60.48
2019-03-06T01:36:34.559Z,59.55
2019-03-06T01:37:22.512Z,58.84
2019-03-06T01:37:58.921Z,58.04
2019-03-06T01:38:39.297Z,57.29
2019-03-06T01:39:28.909Z,57.25
2019-03-06T01:40:02.155Z,57.54
2019-03-06T01:40:47.356Z,58.34
2019-03-06T01:41:32.407Z,58.86
2019-03-06T01:42:05.635Z,59.74
2019-03-06T01:42:38.863Z,60.58
2019-03-06T01:43:14.959Z,61.32
2019-03-06T01:43:54.147Z,61.88
2019-03-06T01:44:30.293Z,62.55
2019-03-06T01:45:01.885Z,63.71
2019-03-06T01:45:33.269Z,64.92
2019-03-06T01:46:04.697Z,65.24
2019-03-06T01:46:36.069Z,65.00
2019-03-06T01:47:07.473Z,64.65
2019-03-06T01:47:38.899Z,63.99
2019-03-06T01:48:10.241Z,63.38
2019-03-06T01:48:41.635Z,62.63
2019-03-06T01:49:13.027Z,61.86
2019-03-06T01:49:44.406Z,61.19
2019-03-06T01:50:15.626Z,60.41
2019-03-06T01:50:47.200Z,59.75
2019-03-06T01:51:18.512Z,59.02
2019-03-06T01:51:49.892Z,58.22
2019-03-06T01:52:21.183Z,57.58
2019-03-06T01:52:52.538Z,57.31
2019-03-06T01:53:23.851Z,57.37
2019-03-06T01:53:55.230Z,57.57
2019-03-06T01:54:26.530Z,58.14
2019-03-06T01:54:57.796Z,58.64
2019-03-06T01:55:29.090Z,59.35
2019-03-06T01:56:00.451Z,59.87
2019-03-06T01:56:31.982Z,60.47
2019-03-06T01:57:03.334Z,61.02
2019-03-06T01:57:34.739Z,61.74
2019-03-06T01:58:06.106Z,62.41
2019-03-06T01:58:37.412Z,63.40
2019-03-06T01:59:08.776Z,64.36
2019-03-06T01:59:40.082Z,64.90
2019-03-06T02:00:15.390Z,64.97
2019-03-06T02:00:46.716Z,64.65
2019-03-06T02:01:18.086Z,63.92
2019-03-06T02:01:49.386Z,63.35
2019-03-06T02:02:20.744Z,62.68
2019-03-06T02:02:52.055Z,61.90
2019-03-06T02:03:23.416Z,61.18
2019-03-06T02:03:54.736Z,60.52
2019-03-06T02:04:26.093Z,59.86
2019-03-06T02:04:57.413Z,59.37
2019-03-06T02:05:28.991Z,58.99
2019-03-06T02:06:00.297Z,58.09
2019-03-06T02:06:31.883Z,57.66
2019-03-06T02:07:03.699Z,57.80
2019-03-06T02:07:35.045Z,58.11
2019-03-06T02:08:06.335Z,58.50
2019-03-06T02:08:37.737Z,59.26
2019-03-06T02:09:09.050Z,59.81
2019-03-06T02:09:40.737Z,60.45
2019-03-06T02:10:13.137Z,61.28
2019-03-06T02:10:44.611Z,62.00
2019-03-06T02:11:15.934Z,62.70
2019-03-06T02:11:47.297Z,63.61
2019-03-06T02:12:18.620Z,64.58
2019-03-06T02:12:49.992Z,64.97
2019-03-06T02:13:22.392Z,64.95
2019-03-06T02:13:53.776Z,64.52
2019-03-06T02:14:25.150Z,63.87
2019-03-06T02:14:56.517Z,63.20
2019-03-06T02:15:27.832Z,62.38
2019-03-06T02:15:59.479Z,61.75
2019-03-06T02:16:30.783Z,61.10
2019-03-06T02:17:02.436Z,60.43
2019-03-06T02:17:33.754Z,59.93
2019-03-06T02:18:05.122Z,59.39
2019-03-06T02:18:36.436Z,58.84
2019-03-06T02:19:07.796Z,58.36
2019-03-06T02:19:39.496Z,58.01
2019-03-06T02:20:15.654Z,58.06
2019-03-06T02:20:47.966Z,58.31
2019-03-06T02:21:19.316Z,58.85
2019-03-06T02:21:50.678Z,59.38
2019-03-06T02:22:22.214Z,59.91
2019-03-06T02:22:53.576Z,60.46
2019-03-06T02:23:25.876Z,61.18
2019-03-06T02:23:57.219Z,61.82
2019-03-06T02:24:28.834Z,62.53
2019-03-06T02:25:00.340Z,63.27
2019-03-06T02:25:31.880Z,64.28
2019-03-06T02:26:03.219Z,64.78
2019-03-06T02:26:34.567Z,64.64
2019-03-06T02:27:05.907Z,64.21
2019-03-06T02:27:37.243Z,63.59
2019-03-06T02:28:08.586Z,62.89
2019-03-06T02:28:39.922Z,62.20
2019-03-06T02:29:11.348Z,61.40
2019-03-06T02:29:42.677Z,60.53
2019-03-06T02:30:20.290Z,60.03
2019-03-06T02:30:51.636Z,59.55
2019-03-06T02:31:23.197Z,58.60
2019-03-06T02:31:54.522Z,57.99
2019-03-06T02:32:25.886Z,57.56
2019-03-06T02:32:57.185Z,57.59
2019-03-06T02:33:28.535Z,57.87
2019-03-06T02:33:59.899Z,58.16
2019-03-06T02:34:32.255Z,58.57
2019-03-06T02:35:04.675Z,59.12
2019-03-06T02:35:36.036Z,59.60
2019-03-06T02:36:07.345Z,60.25
2019-03-06T02:36:38.689Z,60.90
2019-03-06T02:37:10.010Z,61.55
2019-03-06T02:37:41.389Z,62.14
2019-03-06T02:38:12.929Z,62.82
2019-03-06T02:38:44.291Z,63.80
2019-03-06T02:39:15.614Z,64.67
2019-03-06T02:39:46.955Z,65.06
2019-03-06T02:40:18.280Z,65.14
2019-03-06T02:40:49.708Z,64.69
2019-03-06T02:41:21.074Z,64.25
2019-03-06T02:41:52.393Z,63.50
2019-03-06T02:42:23.734Z,62.84
2019-03-06T02:42:55.051Z,62.17
2019-03-06T02:43:26.408Z,61.52
2019-03-06T02:43:57.735Z,60.96
2019-03-06T02:44:29.432Z,60.29
2019-03-06T02:45:00.940Z,59.86
2019-03-06T02:45:33.800Z,59.40
2019-03-06T02:46:05.162Z,58.66
2019-03-06T02:46:36.458Z,58.00
2019-03-06T02:47:07.762Z,57.65
2019-03-06T02:47:40.116Z,57.62
2019-03-06T02:48:11.427Z,57.81
2019-03-06T02:48:43.901Z,58.14
2019-03-06T02:49:15.216Z,58.75
2019-03-06T02:49:46.592Z,59.35
2019-03-06T02:50:18.211Z,60.04
2019-03-06T02:50:49.551Z,60.86
2019-03-06T02:51:20.873Z,61.54
2019-03-06T02:51:52.356Z,62.19
2019-03-06T02:52:23.635Z,62.74
2019-03-06T02:52:55.016Z,63.56
2019-03-06T02:53:26.302Z,64.65
2019-03-06T02:53:59.038Z,65.16
2019-03-06T02:54:30.359Z,65.25
2019-03-06T02:55:01.878Z,64.90
2019-03-06T02:55:33.178Z,64.26
2019-03-06T02:56:04.562Z,63.62
2019-03-06T02:56:35.869Z,62.61
2019-03-06T02:57:07.255Z,61.95
2019-03-06T02:57:40.537Z,61.30
2019-03-06T02:58:13.818Z,60.71
2019-03-06T02:58:49.974Z,60.18
2019-03-06T02:59:23.271Z,59.68
2019-03-06T02:59:56.574Z,59.11
2019-03-06T03:00:46.343Z,58.46
2019-03-06T03:01:31.907Z,57.75
2019-03-06T03:02:05.278Z,57.73
2019-03-06T03:02:38.549Z,58.33
2019-03-06T03:03:12.756Z,58.96
2019-03-06T03:03:49.883Z,59.49
2019-03-06T03:04:24.185Z,60.09
2019-03-06T03:05:06.355Z,60.71
2019-03-06T03:05:39.742Z,61.34
2019-03-06T03:06:18.623Z,62.16
2019-03-06T03:06:51.903Z,62.76
2019-03-06T03:07:23.221Z,63.85
2019-03-06T03:07:54.598Z,64.93
2019-03-06T03:08:25.906Z,65.29
2019-03-06T03:08:57.290Z,65.17
2019-03-06T03:09:28.589Z,64.61
2019-03-06T03:09:59.982Z,63.79
2019-03-06T03:10:31.310Z,63.16
2019-03-06T03:11:03.035Z,62.47
2019-03-06T03:11:34.351Z,61.64
2019-03-06T03:12:05.715Z,60.92
2019-03-06T03:12:37.007Z,60.16
2019-03-06T03:13:08.374Z,59.63
2019-03-06T03:13:39.690Z,59.01
2019-03-06T03:14:11.052Z,58.11
2019-03-06T03:14:42.366Z,57.46
2019-03-06T03:15:13.762Z,57.15
2019-03-06T03:15:45.067Z,57.13
2019-03-06T03:16:16.404Z,57.43
2019-03-06T03:16:47.720Z,57.95
2019-03-06T03:17:19.091Z,58.37
2019-03-06T03:17:50.521Z,58.92
2019-03-06T03:18:21.881Z,59.48
2019-03-06T03:18:53.199Z,60.06
2019-03-06T03:19:24.562Z,60.73
2019-03-06T03:19:55.844Z,61.44
2019-03-06T03:20:27.202Z,62.06
2019-03-06T03:20:58.516Z,62.62
2019-03-06T03:21:29.853Z,63.59
2019-03-06T03:22:01.241Z,64.55
2019-03-06T03:22:32.447Z,65.05
2019-03-06T03:23:03.760Z,65.04
2019-03-06T03:23:35.100Z,64.57
2019-03-06T03:24:06.395Z,63.83
2019-03-06T03:24:37.855Z,63.07
2019-03-06T03:25:09.207Z,62.16
2019-03-06T03:25:40.516Z,61.28
2019-03-06T03:26:11.816Z,60.59
2019-03-06T03:26:43.146Z,59.63
2019-03-06T03:27:14.505Z,58.92
2019-03-06T03:27:45.819Z,58.12
2019-03-06T03:28:19.761Z,57.39
2019-03-06T03:28:50.282Z,57.02
2019-03-06T03:29:21.653Z,56.95
2019-03-06T03:29:52.974Z,57.12
2019-03-06T03:30:24.331Z,57.46
2019-03-06T03:30:55.655Z,58.01
2019-03-06T03:31:27.320Z,58.53
2019-03-06T03:31:58.688Z,59.23
2019-03-06T03:32:30.136Z,59.92
2019-03-06T03:33:01.508Z,60.56
2019-03-06T03:33:32.820Z,61.20
2019-03-06T03:34:04.153Z,61.87
2019-03-06T03:34:35.535Z,62.66
2019-03-06T03:35:07.044Z,63.60
2019-03-06T03:35:38.407Z,64.54
2019-03-06T03:36:09.715Z,64.95
2019-03-06T03:36:41.082Z,64.74
2019-03-06T03:37:12.405Z,64.19
2019-03-06T03:37:43.771Z,63.69
2019-03-06T03:38:15.291Z,62.86
2019-03-06T03:38:46.643Z,62.13
2019-03-06T03:39:17.947Z,61.37
2019-03-06T03:39:49.283Z,60.62
2019-03-06T03:40:20.596Z,59.79
2019-03-06T03:40:52.017Z,59.25
2019-03-06T03:41:23.405Z,58.40
2019-03-06T03:41:54.804Z,57.45
2019-03-06T03:42:26.195Z,57.04
2019-03-06T03:42:57.548Z,56.99
2019-03-06T03:43:29.042Z,57.23
2019-03-06T03:44:00.402Z,57.65
2019-03-06T03:44:31.988Z,58.10
2019-03-06T03:45:08.143Z,58.65
2019-03-06T03:45:39.470Z,59.19
2019-03-06T03:46:11.047Z,60.10
2019-03-06T03:46:42.343Z,60.72
2019-03-06T03:47:13.718Z,61.42
2019-03-06T03:47:45.034Z,62.08
2019-03-06T03:48:16.396Z,62.65
2019-03-06T03:48:47.707Z,63.59
2019-03-06T03:49:19.083Z,64.74
2019-03-06T03:49:50.393Z,65.17
2019-03-06T03:50:21.791Z,65.17
2019-03-06T03:50:53.097Z,64.65
2019-03-06T03:51:24.450Z,64.00
2019-03-06T03:51:55.768Z,63.28
2019-03-06T03:52:28.161Z,62.41
2019-03-06T03:52:59.821Z,61.65
2019-03-06T03:53:31.212Z,60.85
2019-03-06T03:54:02.599Z,60.15
2019-03-06T03:54:33.996Z,59.31
2019-03-06T03:55:17.197Z,58.37
2019-03-06T03:55:48.586Z,57.52
2019-03-06T03:56:19.987Z,57.15
2019-03-06T03:56:51.360Z,57.23
2019-03-06T03:57:22.784Z,57.51
2019-03-06T03:57:54.187Z,58.00
2019-03-06T03:58:25.566Z,58.51
2019-03-06T03:58:56.867Z,59.05
2019-03-06T03:59:28.232Z,59.70
2019-03-06T03:59:59.548Z,60.37
2019-03-06T04:00:30.914Z,60.85
2019-03-06T04:01:02.224Z,61.49
2019-03-06T04:01:33.589Z,61.92
2019-03-06T04:02:05.000Z,62.53
2019-03-06T04:02:36.370Z,63.35
2019-03-06T04:03:07.714Z,64.35
2019-03-06T04:03:39.104Z,64.85
2019-03-06T04:04:10.488Z,64.84
2019-03-06T04:04:41.880Z,64.47
2019-03-06T04:05:13.268Z,63.93
2019-03-06T04:05:44.648Z,63.21
2019-03-06T04:06:16.090Z,62.51
2019-03-06T04:06:47.441Z,61.68
2019-03-06T04:07:18.826Z,60.75
2019-03-06T04:07:50.211Z,60.05
2019-03-06T04:08:21.567Z,59.39
2019-03-06T04:08:53.069Z,58.52
2019-03-06T04:09:24.426Z,57.61
2019-03-06T04:09:55.738Z,57.29
2019-03-06T04:10:27.101Z,57.07
2019-03-06T04:10:58.395Z,57.31
2019-03-06T04:11:29.763Z,57.75
2019-03-06T04:12:00.961Z,58.34
2019-03-06T04:12:34.217Z,58.82
2019-03-06T04:13:05.438Z,59.24
2019-03-06T04:13:36.689Z,59.86
2019-03-06T04:14:07.882Z,60.25
2019-03-06T04:14:39.202Z,60.85
2019-03-06T04:15:12.891Z,61.45
2019-03-06T04:15:44.115Z,61.92
2019-03-06T04:16:15.314Z,62.58
2019-03-06T04:16:46.859Z,63.34
2019-03-06T04:17:18.025Z,64.22
2019-03-06T04:17:49.260Z,64.54
2019-03-06T04:18:20.508Z,64.43
2019-03-06T04:18:51.776Z,64.06
2019-03-06T04:19:23.039Z,63.27
2019-03-06T04:19:54.403Z,62.41
2019-03-06T04:20:25.755Z,61.51
2019-03-06T04:20:57.007Z,60.61
2019-03-06T04:21:28.363Z,59.95
2019-03-06T04:21:59.589Z,59.16
2019-03-06T04:22:31.113Z,58.18
2019-03-06T04:23:02.366Z,57.38
2019-03-06T04:23:33.626Z,57.09
2019-03-06T04:24:04.817Z,57.09
2019-03-06T04:24:36.073Z,57.38
2019-03-06T04:25:08.456Z,57.80
2019-03-06T04:25:39.694Z,58.16
2019-03-06T04:26:10.875Z,58.65
2019-03-06T04:26:42.095Z,59.36
2019-03-06T04:27:13.279Z,59.88
2019-03-06T04:27:44.504Z,60.19
2019-03-06T04:28:15.762Z,60.52
2019-03-06T04:28:46.965Z,61.17
2019-03-06T04:29:18.373Z,61.69
2019-03-06T04:29:49.648Z,62.05
2019-03-06T04:30:20.933Z,62.26
2019-03-06T04:30:52.442Z,62.46
2019-03-06T04:31:23.605Z,63.14
2019-03-06T04:31:54.823Z,63.96
2019-03-06T04:32:25.994Z,64.38
2019-03-06T04:32:57.177Z,64.34
2019-03-06T04:33:28.395Z,63.83
2019-03-06T04:33:59.791Z,63.24
2019-03-06T04:34:31.106Z,62.53
2019-03-06T04:35:03.655Z,61.64
2019-03-06T04:35:34.904Z,60.85
2019-03-06T04:36:06.295Z,59.93
2019-03-06T04:36:37.501Z,59.33
2019-03-06T04:37:08.756Z,58.30
2019-03-06T04:37:39.959Z,57.38
2019-03-06T04:38:11.153Z,56.99
2019-03-06T04:38:43.869Z,56.56
2019-03-06T04:39:15.138Z,56.91
2019-03-06T04:39:46.327Z,57.32
2019-03-06T04:40:17.515Z,57.84
2019-03-06T04:40:48.694Z,58.41
2019-03-06T04:41:19.944Z,58.88
2019-03-06T04:41:51.171Z,59.45
2019-03-06T04:42:22.448Z,60.07
2019-03-06T04:42:53.908Z,60.65
2019-03-06T04:43:25.146Z,61.30
2019-03-06T04:43:56.654Z,61.97
2019-03-06T04:44:27.812Z,62.55
2019-03-06T04:44:59.017Z,63.45
2019-03-06T04:45:30.172Z,64.32
2019-03-06T04:46:01.390Z,64.74
2019-03-06T04:46:33.546Z,64.54
2019-03-06T04:47:04.764Z,64.02
2019-03-06T04:47:35.930Z,63.41
2019-03-06T04:48:07.137Z,62.63
2019-03-06T04:48:38.309Z,61.83
2019-03-06T04:49:09.537Z,60.91
2019-03-06T04:49:40.877Z,60.17
2019-03-06T04:50:13.106Z,59.48
2019-03-06T04:50:44.643Z,58.59
2019-03-06T04:51:15.871Z,57.79
2019-03-06T04:51:47.105Z,57.29
2019-03-06T04:52:18.293Z,57.15
2019-03-06T04:52:49.583Z,57.39
2019-03-06T04:53:20.730Z,57.72
2019-03-06T04:53:51.925Z,58.25
2019-03-06T04:54:23.085Z,58.68
2019-03-06T04:54:54.271Z,59.23
2019-03-06T04:55:26.425Z,59.71
2019-03-06T04:55:57.628Z,60.29
2019-03-06T04:56:28.773Z,60.95
2019-03-06T04:57:00.069Z,61.60
2019-03-06T04:57:31.544Z,62.19
2019-03-06T04:58:02.773Z,62.69
2019-03-06T04:58:33.951Z,63.49
2019-03-06T04:59:05.173Z,64.33
2019-03-06T04:59:36.342Z,64.66
2019-03-06T05:00:22.401Z,64.53
2019-03-06T05:00:53.974Z,64.28
2019-03-06T05:01:27.126Z,63.13
2019-03-06T05:01:58.291Z,62.34
2019-03-06T05:02:29.583Z,61.44
2019-03-06T05:03:00.739Z,60.53
2019-03-06T05:03:31.946Z,59.81
2019-03-06T05:04:03.118Z,59.15
2019-03-06T05:04:34.314Z,58.26
2019-03-06T05:05:05.483Z,57.43
2019-03-06T05:05:36.682Z,57.02
2019-03-06T05:06:07.866Z,56.98
2019-03-06T05:06:39.067Z,57.14
2019-03-06T05:07:10.250Z,57.45
2019-03-06T05:07:41.546Z,57.97
2019-03-06T05:08:12.733Z,58.53
2019-03-06T05:08:43.908Z,58.91
2019-03-06T05:09:15.110Z,59.48
2019-03-06T05:09:46.322Z,60.07
2019-03-06T05:10:17.504Z,60.73
2019-03-06T05:10:48.675Z,61.30
2019-03-06T05:11:19.863Z,61.92
2019-03-06T05:11:51.039Z,62.49
2019-03-06T05:12:22.214Z,63.37
2019-03-06T05:12:53.410Z,64.26
2019-03-06T05:13:25.310Z,64.81
2019-03-06T05:13:56.718Z,64.79
2019-03-06T05:14:28.176Z,64.17
2019-03-06T05:14:59.644Z,63.73
2019-03-06T05:15:30.821Z,62.98
2019-03-06T05:16:02.038Z,62.10
2019-03-06T05:16:35.102Z,61.27
2019-03-06T05:17:08.208Z,60.50
2019-03-06T05:17:41.258Z,59.89
2019-03-06T05:18:14.356Z,59.16
2019-03-06T05:18:47.411Z,58.32
2019-03-06T05:19:18.631Z,57.46
2019-03-06T05:19:49.783Z,57.14
2019-03-06T05:20:21.005Z,57.06
2019-03-06T05:20:52.225Z,57.33
2019-03-06T05:21:24.230Z,57.69
2019-03-06T05:21:55.394Z,58.07
2019-03-06T05:22:26.789Z,58.59
2019-03-06T05:22:58.011Z,59.08
2019-03-06T05:23:29.401Z,59.77
2019-03-06T05:24:00.609Z,60.32
2019-03-06T05:24:31.940Z,61.04
2019-03-06T05:25:04.799Z,61.72
2019-03-06T05:25:36.314Z,62.29
2019-03-06T05:26:07.570Z,63.09
2019-03-06T05:26:38.772Z,64.08
2019-03-06T05:27:09.942Z,64.59
2019-03-06T05:27:41.163Z,64.68
2019-03-06T05:28:12.322Z,64.23
2019-03-06T05:28:43.537Z,63.61
2019-03-06T05:29:14.700Z,62.86
2019-03-06T05:29:45.923Z,62.11
2019-03-06T05:30:18.883Z,61.41
2019-03-06T05:30:50.106Z,60.59
2019-03-06T05:31:21.246Z,59.88
2019-03-06T05:32:33.042Z,59.28
2019-03-06T05:33:13.796Z,58.15
2019-03-06T05:33:44.986Z,57.57
2019-03-06T05:34:16.154Z,57.71
2019-03-06T05:34:47.591Z,58.02
2019-03-06T05:35:47.987Z,58.51
2019-03-06T05:36:48.907Z,58.78
2019-03-06T05:38:05.088Z,59.92
2019-03-06T05:38:47.585Z,60.90
2019-03-06T05:39:18.957Z,62.22
2019-03-06T05:39:50.189Z,63.67
2019-03-06T05:40:21.347Z,64.78
2019-03-06T05:40:53.554Z,65.34
2019-03-06T05:41:24.854Z,65.37
2019-03-06T05:41:56.037Z,64.92
2019-03-06T05:42:27.280Z,64.33
2019-03-06T05:42:58.473Z,63.66
2019-03-06T05:43:29.757Z,62.92
2019-03-06T05:44:00.939Z,61.97
2019-03-06T05:44:32.133Z,61.14
2019-03-06T05:45:05.919Z,60.51
2019-03-06T05:45:37.095Z,59.97
2019-03-06T05:46:08.275Z,59.35
2019-03-06T05:46:39.439Z,58.50
2019-03-06T05:47:10.899Z,57.76
2019-03-06T05:47:42.095Z,57.40
2019-03-06T05:48:13.267Z,57.47
2019-03-06T05:48:44.459Z,57.81
2019-03-06T05:49:15.632Z,58.25
2019-03-06T05:49:46.803Z,58.77
2019-03-06T05:50:18.008Z,59.42
2019-03-06T05:50:49.185Z,60.07
2019-03-06T05:51:20.374Z,60.69
2019-03-06T05:51:51.552Z,61.34
2019-03-06T05:52:22.744Z,61.92
2019-03-06T05:52:53.905Z,62.59
2019-03-06T05:53:25.152Z,63.43
2019-03-06T05:53:56.624Z,64.51
2019-03-06T05:54:27.833Z,65.07
2019-03-06T05:54:58.995Z,65.05
2019-03-06T05:55:30.210Z,64.64
2019-03-06T05:56:01.364Z,64.06
2019-03-06T05:56:32.734Z,63.38
2019-03-06T05:57:03.896Z,62.63
2019-03-06T05:57:35.102Z,61.83
2019-03-06T05:58:06.266Z,61.18
2019-03-06T05:58:37.476Z,60.44
2019-03-06T05:59:08.626Z,59.88
2019-03-06T05:59:39.824Z,59.38
2019-03-06T06:00:16.136Z,58.55
2019-03-06T06:00:47.336Z,57.72
2019-03-06T06:01:18.502Z,57.55
2019-03-06T06:01:50.009Z,57.51
2019-03-06T06:02:21.164Z,57.85
2019-03-06T06:02:52.371Z,58.31
2019-03-06T06:03:23.526Z,58.97
2019-03-06T06:03:54.726Z,59.55
2019-03-06T06:04:25.890Z,60.18
2019-03-06T06:04:57.100Z,60.88
2019-03-06T06:05:28.270Z,61.61
2019-03-06T06:05:59.737Z,62.24
2019-03-06T06:06:31.010Z,62.90
2019-03-06T06:07:02.220Z,63.97
2019-03-06T06:07:33.392Z,64.92
2019-03-06T06:08:04.584Z,65.43
2019-03-06T06:08:36.053Z,65.52
2019-03-06T06:09:07.253Z,65.20
2019-03-06T06:09:38.423Z,64.54
2019-03-06T06:10:14.538Z,63.97
2019-03-06T06:10:45.730Z,63.16
2019-03-06T06:11:16.909Z,62.31
2019-03-06T06:11:48.103Z,61.47
2019-03-06T06:12:19.291Z,60.74
2019-03-06T06:12:50.463Z,60.14
2019-03-06T06:13:21.634Z,59.60
2019-03-06T06:13:52.823Z,59.16
2019-03-06T06:14:24.017Z,58.32
2019-03-06T06:14:55.216Z,57.58
2019-03-06T06:15:26.375Z,57.34
2019-03-06T06:15:57.575Z,57.42
2019-03-06T06:16:29.224Z,57.74
2019-03-06T06:17:00.400Z,58.19
2019-03-06T06:17:31.587Z,58.73
2019-03-06T06:18:02.765Z,59.38
2019-03-06T06:18:33.944Z,60.01
2019-03-06T06:19:05.120Z,60.72
2019-03-06T06:19:36.410Z,61.32
2019-03-06T06:20:10.791Z,62.06
2019-03-06T06:20:41.973Z,62.69
2019-03-06T06:21:15.055Z,63.69
2019-03-06T06:21:48.128Z,64.64
2019-03-06T06:22:29.932Z,65.17
2019-03-06T06:23:05.868Z,65.08
2019-03-06T06:23:41.900Z,64.47
2019-03-06T06:24:13.066Z,63.67
2019-03-06T06:24:44.268Z,62.58
2019-03-06T06:25:15.435Z,61.84
2019-03-06T06:25:46.676Z,61.11
2019-03-06T06:26:17.956Z,60.37
2019-03-06T06:26:50.193Z,59.76
2019-03-06T06:27:21.442Z,59.14
2019-03-06T06:27:52.689Z,58.20
2019-03-06T06:28:23.938Z,57.47
2019-03-06T06:28:55.351Z,57.23
2019-03-06T06:29:26.595Z,57.30
2019-03-06T06:29:57.836Z,57.67
2019-03-06T06:30:29.404Z,58.09
2019-03-06T06:31:00.643Z,58.50
2019-03-06T06:31:31.932Z,59.03
2019-03-06T06:32:03.080Z,59.65
2019-03-06T06:32:34.294Z,60.41
2019-03-06T06:33:05.457Z,61.05
2019-03-06T06:33:36.677Z,61.58
2019-03-06T06:34:07.844Z,62.12
2019-03-06T06:34:39.079Z,62.92
2019-03-06T06:35:11.533Z,63.68
2019-03-06T06:35:42.947Z,64.65
2019-03-06T06:36:14.169Z,65.03
2019-03-06T06:36:45.403Z,65.02
2019-03-06T06:37:16.641Z,64.55
2019-03-06T06:37:47.901Z,63.74
2019-03-06T06:38:19.138Z,62.93
2019-03-06T06:38:50.370Z,62.27
2019-03-06T06:39:22.255Z,61.48
2019-03-06T06:39:53.527Z,60.80
2019-03-06T06:40:24.759Z,59.93
2019-03-06T06:40:55.986Z,59.43
2019-03-06T06:41:27.243Z,58.64
2019-03-06T06:41:58.423Z,57.84
2019-03-06T06:42:29.986Z,57.48
2019-03-06T06:43:01.178Z,57.38
2019-03-06T06:43:32.625Z,57.52
2019-03-06T06:44:03.775Z,57.90
2019-03-06T06:44:34.988Z,58.44
2019-03-06T06:45:12.677Z,59.00
2019-03-06T06:45:43.887Z,59.66
2019-03-06T06:46:15.152Z,60.36
2019-03-06T06:46:46.373Z,61.01
2019-03-06T06:47:17.577Z,61.65
2019-03-06T06:48:13.648Z,62.34
2019-03-06T06:48:44.817Z,63.39
2019-03-06T06:49:16.252Z,64.60
2019-03-06T06:49:47.457Z,64.79
2019-03-06T06:50:18.658Z,64.50
2019-03-06T06:51:03.950Z,63.94
2019-03-06T06:52:13.938Z,63.32
2019-03-06T06:53:24.017Z,62.77
2019-03-06T06:54:12.330Z,61.62
2019-03-06T06:55:06.738Z,60.24
2019-03-06T06:55:46.600Z,59.32
2019-03-06T06:56:41.732Z,57.87
2019-03-06T06:57:49.676Z,56.67